createdAt,value
2018-03-07T00:00:26.911Z,14.41
2018-03-07T00:01:27.548Z,14.37
2018-03-07T00:02:28.320Z,14.47
2018-03-07T00:03:28.895Z,14.37
2018-03-07T00:04:29.538Z,14.41
2018-03-07T00:05:30.099Z,14.37
2018-03-07T00:06:30.728Z,14.40
2018-03-07T00:07:31.352Z,14.32
2018-03-07T00:08:31.928Z,14.40
2018-03-07T00:09:32.507Z,14.36
2018-03-07T00:10:33.089Z,14.33
2018-03-07T00:11:33.672Z,14.37
2018-03-07T00:12:34.299Z,14.32
2018-03-07T00:13:34.880Z,14.40
2018-03-07T00:14:35.454Z,14.37
2018-03-07T00:15:36.034Z,14.41
2018-03-07T00:16:36.609Z,14.37
2018-03-07T00:17:37.187Z,14.41
2018-03-07T00:18:37.821Z,14.36
2018-03-07T00:19:38.449Z,14.43
2018-03-07T00:20:39.029Z,14.40
2018-03-07T00:21:39.610Z,14.35
2018-03-07T00:22:40.340Z,14.40
2018-03-07T00:23:40.923Z,14.30
2018-03-07T00:24:41.497Z,14.28
2018-03-07T00:25:42.076Z,14.30
2018-03-07T00:26:42.652Z,14.25
2018-03-07T00:27:43.234Z,14.30
2018-03-07T00:28:43.861Z,14.40
2018-03-07T00:29:44.491Z,14.25
2018-03-07T00:30:45.176Z,14.33
2018-03-07T00:31:45.850Z,14.28
2018-03-07T00:32:46.631Z,14.28
2018-03-07T00:33:47.208Z,14.23
2018-03-07T00:34:47.783Z,14.26
2018-03-07T00:35:48.363Z,14.30
2018-03-07T00:36:48.950Z,14.30
2018-03-07T00:37:49.531Z,14.25
2018-03-07T00:38:50.147Z,14.25
2018-03-07T00:39:50.727Z,14.30
2018-03-07T00:40:51.306Z,14.33
2018-03-07T00:41:51.884Z,14.29
2018-03-07T00:42:52.463Z,14.28
2018-03-07T00:43:53.092Z,14.33
2018-03-07T00:44:53.669Z,14.28
2018-03-07T00:45:54.248Z,14.23
2018-03-07T00:46:54.872Z,14.35
2018-03-07T00:47:55.450Z,14.33
2018-03-07T00:48:56.026Z,14.22
2018-03-07T00:49:56.652Z,14.29
2018-03-07T00:50:57.229Z,14.18
2018-03-07T00:51:57.804Z,14.25
2018-03-07T00:52:58.384Z,14.25
2018-03-07T00:53:58.964Z,14.29
2018-03-07T00:54:59.543Z,14.26
2018-03-07T00:56:00.125Z,14.25
2018-03-07T00:57:00.705Z,14.28
2018-03-07T00:58:01.285Z,14.36
2018-03-07T00:59:01.917Z,14.35
2018-03-07T01:00:02.497Z,14.18
2018-03-07T01:01:03.075Z,14.26
2018-03-07T01:02:03.655Z,14.35
2018-03-07T01:03:04.233Z,14.30
2018-03-07T01:04:04.813Z,14.29
2018-03-07T01:05:05.442Z,14.29
2018-03-07T01:06:06.068Z,14.23
2018-03-07T01:07:06.643Z,14.25
2018-03-07T01:08:07.220Z,14.33
2018-03-07T01:09:07.796Z,14.29
2018-03-07T01:10:08.421Z,14.33
2018-03-07T01:11:09.003Z,14.25
2018-03-07T01:12:09.581Z,14.33
2018-03-07T01:13:10.154Z,14.22
2018-03-07T01:14:10.785Z,14.36
2018-03-07T01:15:11.360Z,14.36
2018-03-07T01:16:11.939Z,14.30
2018-03-07T01:17:12.517Z,14.29
2018-03-07T01:18:13.095Z,14.36
2018-03-07T01:19:13.681Z,14.30
2018-03-07T01:20:14.293Z,14.36
2018-03-07T01:21:15.021Z,14.23
2018-03-07T01:22:15.596Z,14.23
2018-03-07T01:23:16.181Z,14.26
2018-03-07T01:24:16.759Z,14.33
2018-03-07T01:25:17.342Z,14.28
2018-03-07T01:26:17.919Z,14.26
2018-03-07T01:27:18.496Z,14.36
2018-03-07T01:28:19.079Z,14.23
2018-03-07T01:29:19.855Z,14.23
2018-03-07T01:30:20.434Z,14.32
2018-03-07T01:31:21.019Z,14.26
2018-03-07T01:32:21.646Z,14.25
2018-03-07T01:33:22.226Z,14.22
2018-03-07T01:34:22.805Z,14.28
2018-03-07T01:35:23.383Z,14.22
2018-03-07T01:36:23.965Z,14.14
2018-03-07T01:37:24.594Z,14.18
2018-03-07T01:38:25.176Z,14.22
2018-03-07T01:39:25.752Z,14.22
2018-03-07T01:40:26.330Z,14.26
2018-03-07T01:41:26.910Z,14.17
2018-03-07T01:42:27.491Z,14.22
2018-03-07T01:43:28.063Z,14.25
2018-03-07T01:44:28.644Z,14.22
2018-03-07T01:45:29.222Z,14.25
2018-03-07T01:46:29.802Z,14.25
2018-03-07T01:47:30.380Z,14.22
2018-03-07T01:48:30.957Z,14.26
2018-03-07T01:49:31.588Z,14.22
2018-03-07T01:50:32.216Z,14.26
2018-03-07T01:51:32.799Z,14.23
2018-03-07T01:52:33.378Z,14.12
2018-03-07T01:53:33.961Z,14.17
2018-03-07T01:54:34.586Z,14.18
2018-03-07T01:55:35.160Z,14.26
2018-03-07T01:56:35.742Z,14.20
2018-03-07T01:57:36.315Z,14.23
2018-03-07T01:58:36.892Z,14.22
2018-03-07T01:59:37.470Z,14.20
2018-03-07T02:00:38.101Z,14.18
2018-03-07T02:01:38.680Z,14.20
2018-03-07T02:02:39.257Z,14.25
2018-03-07T02:03:39.831Z,14.11
2018-03-07T02:04:40.405Z,14.10
2018-03-07T02:05:40.986Z,14.15
2018-03-07T02:06:41.614Z,14.11
2018-03-07T02:07:42.192Z,14.11
2018-03-07T02:08:42.770Z,14.11
2018-03-07T02:09:43.346Z,14.18
2018-03-07T02:10:43.927Z,14.12
2018-03-07T02:11:44.553Z,14.15
2018-03-07T02:12:45.135Z,14.15
2018-03-07T02:13:45.712Z,14.08
2018-03-07T02:14:46.291Z,14.07
2018-03-07T02:15:46.874Z,14.08
2018-03-07T02:16:47.455Z,14.10
2018-03-07T02:17:48.034Z,14.03
2018-03-07T02:18:48.613Z,14.12
2018-03-07T02:19:49.245Z,14.00
2018-03-07T02:20:49.825Z,14.08
2018-03-07T02:21:50.403Z,14.05
2018-03-07T02:22:50.984Z,13.97
2018-03-07T02:23:51.611Z,14.10
2018-03-07T02:24:52.190Z,14.05
2018-03-07T02:25:52.770Z,14.00
2018-03-07T02:26:53.352Z,14.07
2018-03-07T02:27:53.931Z,14.03
2018-03-07T02:28:54.559Z,14.03
2018-03-07T02:29:55.135Z,14.03
2018-03-07T02:30:55.715Z,13.96
2018-03-07T02:31:56.289Z,14.07
2018-03-07T02:32:56.869Z,13.97
2018-03-07T02:33:57.491Z,14.05
2018-03-07T02:34:58.068Z,14.05
2018-03-07T02:35:58.642Z,14.00
2018-03-07T02:36:59.287Z,13.97
2018-03-07T02:37:59.848Z,13.96
2018-03-07T02:39:00.581Z,14.04
2018-03-07T02:40:01.196Z,14.08
2018-03-07T02:41:01.772Z,14.03
2018-03-07T02:42:02.401Z,13.96
2018-03-07T02:43:02.983Z,13.96
2018-03-07T02:44:03.559Z,14.05
2018-03-07T02:45:04.140Z,13.99
2018-03-07T02:46:04.718Z,14.00
2018-03-07T02:47:05.451Z,14.03
2018-03-07T02:48:06.030Z,14.00
2018-03-07T02:49:06.615Z,14.05
2018-03-07T02:50:07.190Z,13.97
2018-03-07T02:51:07.771Z,14.00
2018-03-07T02:52:08.345Z,13.90
2018-03-07T02:53:08.979Z,13.92
2018-03-07T02:54:09.547Z,13.95
2018-03-07T02:55:10.181Z,13.99
2018-03-07T02:56:10.814Z,13.83
2018-03-07T02:57:11.395Z,13.79
2018-03-07T02:58:11.966Z,13.78
2018-03-07T02:59:12.545Z,13.86
2018-03-07T03:00:13.121Z,13.86
2018-03-07T03:01:13.757Z,13.77
2018-03-07T03:02:14.378Z,13.86
2018-03-07T03:03:14.950Z,13.83
2018-03-07T03:04:15.526Z,13.77
2018-03-07T03:05:16.111Z,13.85
2018-03-07T03:06:16.724Z,13.79
2018-03-07T03:07:17.304Z,13.81
2018-03-07T03:08:17.880Z,13.79
2018-03-07T03:09:18.461Z,13.83
2018-03-07T03:10:19.040Z,13.85
2018-03-07T03:11:19.618Z,13.79
2018-03-07T03:12:20.196Z,13.86
2018-03-07T03:13:20.824Z,13.86
2018-03-07T03:14:21.401Z,13.81
2018-03-07T03:15:22.027Z,13.83
2018-03-07T03:16:22.607Z,13.81
2018-03-07T03:17:23.185Z,13.83
2018-03-07T03:18:23.765Z,13.85
2018-03-07T03:19:24.345Z,13.72
2018-03-07T03:20:24.923Z,13.77
2018-03-07T03:21:25.502Z,13.74
2018-03-07T03:22:26.232Z,13.79
2018-03-07T03:23:26.811Z,13.70
2018-03-07T03:24:27.389Z,13.67
2018-03-07T03:25:27.968Z,13.75
2018-03-07T03:26:28.548Z,13.70
2018-03-07T03:27:29.126Z,13.65
2018-03-07T03:28:29.704Z,13.68
2018-03-07T03:29:30.282Z,13.67
2018-03-07T03:30:30.859Z,13.67
2018-03-07T03:31:31.433Z,13.68
2018-03-07T03:32:32.860Z,13.67
2018-03-07T03:33:33.440Z,13.70
2018-03-07T03:34:34.016Z,13.75
2018-03-07T03:35:34.592Z,13.77
2018-03-07T03:36:35.167Z,13.71
2018-03-07T03:37:35.942Z,13.70
2018-03-07T03:38:36.519Z,13.71
2018-03-07T03:39:37.146Z,13.67
2018-03-07T03:40:37.722Z,13.68
2018-03-07T03:41:38.298Z,13.70
2018-03-07T03:42:38.877Z,13.67
2018-03-07T03:43:39.458Z,13.72
2018-03-07T03:44:40.034Z,13.62
2018-03-07T03:45:40.625Z,13.57
2018-03-07T03:46:41.187Z,13.67
2018-03-07T03:47:41.815Z,13.57
2018-03-07T03:48:42.394Z,13.54
2018-03-07T03:49:42.969Z,13.57
2018-03-07T03:50:43.548Z,13.57
2018-03-07T03:51:44.126Z,13.59
2018-03-07T03:52:44.706Z,13.54
2018-03-07T03:53:45.285Z,13.60
2018-03-07T03:54:45.864Z,13.57
2018-03-07T03:55:46.493Z,13.59
2018-03-07T03:56:47.122Z,13.59
2018-03-07T03:57:47.701Z,13.65
2018-03-07T03:58:48.286Z,13.59
2018-03-07T03:59:48.862Z,13.56
2018-03-07T04:00:49.441Z,13.60
2018-03-07T04:01:50.018Z,13.56
2018-03-07T04:02:50.649Z,13.60
2018-03-07T04:03:51.228Z,13.59
2018-03-07T04:04:51.809Z,13.50
2018-03-07T04:05:52.386Z,13.65
2018-03-07T04:06:52.966Z,13.59
2018-03-07T04:07:53.539Z,13.57
2018-03-07T04:08:54.116Z,13.49
2018-03-07T04:09:54.692Z,13.50
2018-03-07T04:10:55.268Z,13.47
2018-03-07T04:11:55.844Z,13.49
2018-03-07T04:12:56.420Z,13.65
2018-03-07T04:13:57.151Z,13.49
2018-03-07T04:14:57.729Z,13.56
2018-03-07T04:15:58.303Z,13.52
2018-03-07T04:16:58.928Z,13.47
2018-03-07T04:17:59.508Z,13.56
2018-03-07T04:19:00.083Z,13.53
2018-03-07T04:20:00.659Z,13.52
2018-03-07T04:21:01.289Z,13.50
2018-03-07T04:22:01.866Z,13.56
2018-03-07T04:23:02.447Z,13.50
2018-03-07T04:24:03.027Z,13.47
2018-03-07T04:25:03.601Z,13.63
2018-03-07T04:26:04.382Z,13.56
2018-03-07T04:27:04.963Z,13.62
2018-03-07T04:28:05.534Z,13.60
2018-03-07T04:29:06.167Z,13.62
2018-03-07T04:30:06.748Z,13.56
2018-03-07T04:31:07.324Z,13.56
2018-03-07T04:32:07.903Z,13.54
2018-03-07T04:33:08.484Z,13.47
2018-03-07T04:34:09.063Z,13.59
2018-03-07T04:35:09.644Z,13.59
2018-03-07T04:36:10.273Z,13.62
2018-03-07T04:37:10.845Z,13.63
2018-03-07T04:38:11.422Z,13.62
2018-03-07T04:39:11.999Z,13.56
2018-03-07T04:40:12.578Z,13.60
2018-03-07T04:41:13.208Z,13.59
2018-03-07T04:42:13.781Z,13.59
2018-03-07T04:43:14.365Z,13.60
2018-03-07T04:44:14.942Z,13.63
2018-03-07T04:45:15.517Z,13.63
2018-03-07T04:46:16.096Z,13.59
2018-03-07T04:47:16.674Z,13.65
2018-03-07T04:48:17.303Z,13.59
2018-03-07T04:49:17.883Z,13.54
2018-03-07T04:50:18.457Z,13.59
2018-03-07T04:51:19.086Z,13.60
2018-03-07T04:52:19.664Z,13.57
2018-03-07T04:53:20.246Z,13.50
2018-03-07T04:54:20.823Z,13.53
2018-03-07T04:55:21.403Z,13.46
2018-03-07T04:56:21.984Z,13.44
2018-03-07T04:57:22.562Z,13.52
2018-03-07T04:58:23.142Z,13.44
2018-03-07T04:59:23.720Z,13.47
2018-03-07T05:00:24.299Z,13.42
2018-03-07T05:01:24.881Z,13.42
2018-03-07T05:02:25.510Z,13.41
2018-03-07T05:03:26.088Z,13.47
2018-03-07T05:04:26.670Z,13.39
2018-03-07T05:05:27.298Z,13.41
2018-03-07T05:06:27.871Z,13.33
2018-03-07T05:07:28.454Z,13.39
2018-03-07T05:08:29.026Z,13.42
2018-03-07T05:09:29.654Z,13.44
2018-03-07T05:10:30.301Z,13.38
2018-03-07T05:11:30.809Z,13.39
2018-03-07T05:12:31.388Z,13.39
2018-03-07T05:13:31.968Z,13.37
2018-03-07T05:14:32.546Z,13.42
2018-03-07T05:15:33.124Z,13.35
2018-03-07T05:16:33.700Z,13.38
2018-03-07T05:17:34.275Z,13.39
2018-03-07T05:18:34.850Z,13.44
2018-03-07T05:19:35.428Z,13.33
2018-03-07T05:20:36.013Z,13.38
2018-03-07T05:21:36.634Z,13.30
2018-03-07T05:22:37.212Z,13.35
2018-03-07T05:23:37.994Z,13.33
2018-03-07T05:24:38.570Z,13.35
2018-03-07T05:25:39.202Z,13.38
2018-03-07T05:26:39.782Z,13.39
2018-03-07T05:27:40.364Z,13.35
2018-03-07T05:28:40.940Z,13.38
2018-03-07T05:29:41.516Z,13.35
2018-03-07T05:30:42.095Z,13.38
2018-03-07T05:31:42.675Z,13.38
2018-03-07T05:32:43.253Z,13.38
2018-03-07T05:33:43.827Z,13.38
2018-03-07T05:34:44.405Z,13.41
2018-03-07T05:35:44.984Z,13.39
2018-03-07T05:36:45.563Z,13.31
2018-03-07T05:37:46.188Z,13.41
2018-03-07T05:38:46.816Z,13.33
2018-03-07T05:39:47.395Z,13.35
2018-03-07T05:40:47.973Z,13.31
2018-03-07T05:41:48.599Z,13.37
2018-03-07T05:42:49.178Z,13.37
2018-03-07T05:43:49.757Z,13.37
2018-03-07T05:44:50.332Z,13.30
2018-03-07T05:45:50.910Z,13.39
2018-03-07T05:46:51.488Z,13.35
2018-03-07T05:47:52.064Z,13.35
2018-03-07T05:48:52.693Z,13.37
2018-03-07T05:49:53.280Z,13.44
2018-03-07T05:50:53.852Z,13.44
2018-03-07T05:51:54.434Z,13.39
2018-03-07T05:52:55.013Z,13.41
2018-03-07T05:53:55.586Z,13.41
2018-03-07T05:54:56.166Z,13.42
2018-03-07T05:55:56.742Z,13.39
2018-03-07T05:56:57.367Z,13.52
2018-03-07T05:57:57.996Z,13.41
2018-03-07T05:58:58.573Z,13.54
2018-03-07T05:59:59.149Z,13.54
2018-03-07T06:00:59.728Z,13.47
2018-03-07T06:02:00.303Z,13.41
2018-03-07T06:03:00.878Z,13.46
2018-03-07T06:04:01.454Z,13.37
2018-03-07T06:05:02.030Z,13.38
2018-03-07T06:06:02.606Z,13.42
2018-03-07T06:07:03.180Z,13.37
2018-03-07T06:08:03.754Z,13.41
2018-03-07T06:09:04.329Z,13.41
2018-03-07T06:10:04.998Z,13.33
2018-03-07T06:11:05.576Z,13.33
2018-03-07T06:12:06.151Z,13.41
2018-03-07T06:13:06.728Z,13.37
2018-03-07T06:14:07.352Z,13.42
2018-03-07T06:15:07.928Z,13.38
2018-03-07T06:16:08.504Z,13.35
2018-03-07T06:17:09.078Z,13.41
2018-03-07T06:18:09.704Z,13.39
2018-03-07T06:19:10.277Z,13.33
2018-03-07T06:20:10.851Z,13.33
2018-03-07T06:21:11.424Z,13.38
2018-03-07T06:22:11.998Z,13.35
2018-03-07T06:23:12.574Z,13.38
2018-03-07T06:24:13.151Z,13.30
2018-03-07T06:25:13.727Z,13.37
2018-03-07T06:26:14.300Z,13.31
2018-03-07T06:27:14.923Z,13.35
2018-03-07T06:28:15.497Z,13.30
2018-03-07T06:29:16.072Z,13.31
2018-03-07T06:30:18.153Z,13.31
2018-03-07T06:31:18.779Z,13.38
2018-03-07T06:32:19.355Z,13.37
2018-03-07T06:33:19.980Z,13.38
2018-03-07T06:34:20.555Z,13.39
2018-03-07T06:35:21.134Z,13.46
2018-03-07T06:36:21.709Z,13.39
2018-03-07T06:37:22.282Z,13.42
2018-03-07T06:38:22.860Z,13.47
2018-03-07T06:39:23.436Z,13.49
2018-03-07T06:40:24.011Z,13.50
2018-03-07T06:41:24.627Z,13.46
2018-03-07T06:42:25.200Z,13.57
2018-03-07T06:43:25.778Z,13.60
2018-03-07T06:44:26.357Z,13.59
2018-03-07T06:45:26.929Z,13.50
2018-03-07T06:46:27.658Z,13.57
2018-03-07T06:47:28.128Z,13.57
2018-03-07T06:48:28.700Z,13.62
2018-03-07T06:49:29.277Z,13.59
2018-03-07T06:50:29.853Z,13.49
2018-03-07T06:51:30.427Z,13.50
2018-03-07T06:52:31.002Z,13.49
2018-03-07T06:53:31.577Z,13.62
2018-03-07T06:54:32.150Z,13.54
2018-03-07T06:55:32.723Z,13.60
2018-03-07T06:56:33.346Z,13.63
2018-03-07T06:57:33.922Z,13.60
2018-03-07T06:58:34.548Z,13.56
2018-03-07T06:59:35.123Z,13.47
2018-03-07T07:00:35.696Z,13.50
2018-03-07T07:01:36.277Z,13.49
2018-03-07T07:02:36.846Z,13.49
2018-03-07T07:03:37.419Z,13.52
2018-03-07T07:04:38.044Z,13.49
2018-03-07T07:05:38.619Z,13.50
2018-03-07T07:06:39.194Z,13.42
2018-03-07T07:07:39.767Z,13.38
2018-03-07T07:08:40.347Z,13.37
2018-03-07T07:09:40.918Z,13.44
2018-03-07T07:10:41.540Z,13.41
2018-03-07T07:11:42.117Z,13.41
2018-03-07T07:12:42.692Z,13.39
2018-03-07T07:13:43.270Z,13.39
2018-03-07T07:14:44.045Z,13.37
2018-03-07T07:15:44.772Z,13.44
2018-03-07T07:16:45.421Z,13.46
2018-03-07T07:17:45.924Z,13.46
2018-03-07T07:18:46.496Z,13.50
2018-03-07T07:19:47.118Z,13.52
2018-03-07T07:20:47.692Z,13.47
2018-03-07T07:21:48.269Z,13.44
2018-03-07T07:22:48.845Z,13.47
2018-03-07T07:23:49.420Z,13.50
2018-03-07T07:24:50.002Z,13.39
2018-03-07T07:25:50.570Z,13.39
2018-03-07T07:26:51.145Z,13.42
2018-03-07T07:27:56.770Z,13.41
2018-03-07T07:28:57.343Z,13.39
2018-03-07T07:29:57.947Z,13.49
2018-03-07T07:30:58.492Z,13.44
2018-03-07T07:31:59.068Z,13.41
2018-03-07T07:32:59.747Z,13.42
2018-03-07T07:34:00.267Z,13.41
2018-03-07T07:35:00.889Z,13.38
2018-03-07T07:36:01.463Z,13.42
2018-03-07T07:37:02.043Z,13.33
2018-03-07T07:38:02.614Z,13.42
2018-03-07T07:39:03.240Z,13.39
2018-03-07T07:40:03.814Z,13.39
2018-03-07T07:41:04.394Z,13.37
2018-03-07T07:42:05.025Z,13.38
2018-03-07T07:43:05.596Z,13.38
2018-03-07T07:44:06.170Z,13.39
2018-03-07T07:45:06.744Z,13.37
2018-03-07T07:46:07.319Z,13.42
2018-03-07T07:47:07.895Z,13.44
2018-03-07T07:48:08.471Z,13.41
2018-03-07T07:49:09.053Z,13.47
2018-03-07T07:50:09.627Z,13.42
2018-03-07T07:51:10.202Z,13.41
2018-03-07T07:52:10.777Z,13.42
2018-03-07T07:53:11.350Z,13.44
2018-03-07T07:54:11.975Z,13.46
2018-03-07T07:55:12.598Z,13.31
2018-03-07T07:56:13.222Z,13.46
2018-03-07T07:57:13.798Z,13.49
2018-03-07T07:58:14.371Z,13.47
2018-03-07T07:59:14.946Z,13.47
2018-03-07T08:00:15.519Z,13.53
2018-03-07T08:01:16.099Z,13.53
2018-03-07T08:02:16.672Z,13.52
2018-03-07T08:03:17.273Z,13.52
2018-03-07T08:04:17.861Z,13.50
2018-03-07T08:05:18.434Z,13.49
2018-03-07T08:06:19.008Z,13.52
2018-03-07T08:07:19.585Z,13.42
2018-03-07T08:08:20.203Z,13.46
2018-03-07T08:09:20.778Z,13.47
2018-03-07T08:10:21.356Z,13.47
2018-03-07T08:11:21.980Z,13.46
2018-03-07T08:12:22.605Z,13.50
2018-03-07T08:13:23.230Z,13.52
2018-03-07T08:14:23.803Z,13.47
2018-03-07T08:15:24.380Z,13.53
2018-03-07T08:16:24.956Z,13.49
2018-03-07T08:17:25.532Z,13.47
2018-03-07T08:18:26.107Z,13.44
2018-03-07T08:19:26.681Z,13.62
2018-03-07T08:20:27.255Z,13.46
2018-03-07T08:21:27.829Z,13.60
2018-03-07T08:22:28.404Z,13.50
2018-03-07T08:23:28.980Z,13.54
2018-03-07T08:24:29.552Z,13.52
2018-03-07T08:25:30.129Z,13.59
2018-03-07T08:26:30.753Z,13.65
2018-03-07T08:27:31.326Z,13.57
2018-03-07T08:28:31.900Z,13.62
2018-03-07T08:29:32.522Z,13.63
2018-03-07T08:30:33.099Z,13.59
2018-03-07T08:31:33.828Z,13.56
2018-03-07T08:32:34.398Z,13.50
2018-03-07T08:33:34.974Z,13.52
2018-03-07T08:34:35.548Z,13.50
2018-03-07T08:35:36.122Z,13.60
2018-03-07T08:36:36.697Z,13.59
2018-03-07T08:37:37.271Z,13.63
2018-03-07T08:38:37.845Z,13.62
2018-03-07T08:39:38.419Z,13.62
2018-03-07T08:40:38.994Z,13.60
2018-03-07T08:41:39.570Z,13.62
2018-03-07T08:42:40.145Z,13.52
2018-03-07T08:43:40.722Z,13.65
2018-03-07T08:44:41.298Z,13.59
2018-03-07T08:45:41.923Z,13.60
2018-03-07T08:46:42.499Z,13.65
2018-03-07T08:47:43.124Z,13.57
2018-03-07T08:48:43.699Z,13.67
2018-03-07T08:49:44.272Z,13.54
2018-03-07T08:50:44.846Z,13.60
2018-03-07T08:51:45.472Z,13.65
2018-03-07T08:52:46.051Z,13.59
2018-03-07T08:53:46.625Z,13.56
2018-03-07T08:54:47.211Z,13.56
2018-03-07T08:55:47.775Z,13.59
2018-03-07T08:56:48.400Z,13.65
2018-03-07T08:57:48.977Z,13.65
2018-03-07T08:58:49.551Z,13.67
2018-03-07T08:59:50.127Z,13.60
2018-03-07T09:00:50.751Z,13.67
2018-03-07T09:01:51.327Z,13.65
2018-03-07T09:02:51.913Z,13.67
2018-03-07T09:03:52.538Z,13.68
2018-03-07T09:04:53.115Z,13.65
2018-03-07T09:05:53.690Z,13.74
2018-03-07T09:06:54.317Z,13.79
2018-03-07T09:07:54.891Z,13.75
2018-03-07T09:08:55.470Z,13.71
2018-03-07T09:09:56.041Z,13.77
2018-03-07T09:10:56.617Z,13.78
2018-03-07T09:11:57.193Z,13.79
2018-03-07T09:12:57.767Z,13.77
2018-03-07T09:13:58.343Z,13.77
2018-03-07T09:14:58.963Z,13.89
2018-03-07T09:15:59.540Z,13.83
2018-03-07T09:17:00.118Z,13.79
2018-03-07T09:18:00.697Z,13.89
2018-03-07T09:19:01.321Z,13.83
2018-03-07T09:20:01.981Z,13.81
2018-03-07T09:21:02.524Z,13.83
2018-03-07T09:22:03.099Z,13.85
2018-03-07T09:23:03.676Z,13.79
2018-03-07T09:24:04.253Z,13.87
2018-03-07T09:25:04.829Z,13.90
2018-03-07T09:26:05.413Z,13.90
2018-03-07T09:27:05.983Z,13.92
2018-03-07T09:28:06.558Z,13.85
2018-03-07T09:29:07.135Z,13.90
2018-03-07T09:30:07.712Z,13.92
2018-03-07T09:31:08.288Z,13.90
2018-03-07T09:32:08.863Z,13.95
2018-03-07T09:33:09.443Z,13.99
2018-03-07T09:34:10.016Z,13.92
2018-03-07T09:35:10.594Z,13.87
2018-03-07T09:36:11.217Z,13.95
2018-03-07T09:37:11.842Z,13.97
2018-03-07T09:38:12.416Z,13.90
2018-03-07T09:39:13.041Z,13.96
2018-03-07T09:40:13.617Z,13.97
2018-03-07T09:41:14.195Z,13.96
2018-03-07T09:42:14.769Z,13.97
2018-03-07T09:43:15.342Z,13.93
2018-03-07T09:44:15.921Z,13.99
2018-03-07T09:45:16.493Z,13.97
2018-03-07T09:46:17.073Z,14.00
2018-03-07T09:47:17.650Z,14.08
2018-03-07T09:48:18.225Z,13.99
2018-03-07T09:49:18.802Z,14.07
2018-03-07T09:50:19.377Z,14.04
2018-03-07T09:51:19.953Z,14.05
2018-03-07T09:52:20.530Z,14.08
2018-03-07T09:53:21.109Z,14.04
2018-03-07T09:54:21.686Z,14.10
2018-03-07T09:55:22.271Z,14.07
2018-03-07T09:56:22.947Z,14.04
2018-03-07T09:57:23.464Z,14.10
2018-03-07T09:58:24.042Z,14.17
2018-03-07T09:59:24.617Z,14.14
2018-03-07T10:00:25.198Z,14.10
2018-03-07T10:01:25.774Z,14.10
2018-03-07T10:02:26.401Z,14.12
2018-03-07T10:03:27.027Z,14.10
2018-03-07T10:04:27.620Z,14.10
2018-03-07T10:05:28.181Z,14.11
2018-03-07T10:06:28.757Z,14.17
2018-03-07T10:07:29.335Z,14.14
2018-03-07T10:08:29.910Z,14.14
2018-03-07T10:09:30.486Z,14.04
2018-03-07T10:10:31.062Z,14.14
2018-03-07T10:11:31.639Z,14.11
2018-03-07T10:12:32.214Z,14.08
2018-03-07T10:13:32.791Z,14.15
2018-03-07T10:14:33.400Z,14.15
2018-03-07T10:15:33.944Z,14.14
2018-03-07T10:16:34.546Z,14.14
2018-03-07T10:17:35.241Z,14.11
2018-03-07T10:18:35.865Z,14.17
2018-03-07T10:19:36.442Z,14.15
2018-03-07T10:20:37.110Z,14.26
2018-03-07T10:21:37.688Z,14.22
2018-03-07T10:22:38.267Z,14.22
2018-03-07T10:23:38.893Z,14.22
2018-03-07T10:24:39.470Z,14.20
2018-03-07T10:25:40.046Z,14.26
2018-03-07T10:26:40.634Z,14.23
2018-03-07T10:27:41.199Z,14.23
2018-03-07T10:28:41.777Z,14.37
2018-03-07T10:29:42.389Z,14.33
2018-03-07T10:30:42.966Z,14.28
2018-03-07T10:31:43.540Z,14.33
2018-03-07T10:32:44.115Z,14.36
2018-03-07T10:33:44.699Z,14.28
2018-03-07T10:34:45.271Z,14.35
2018-03-07T10:35:45.896Z,14.25
2018-03-07T10:36:46.520Z,14.22
2018-03-07T10:37:47.097Z,14.26
2018-03-07T10:38:47.673Z,14.29
2018-03-07T10:39:48.251Z,14.28
2018-03-07T10:40:48.827Z,14.29
2018-03-07T10:41:49.553Z,14.29
2018-03-07T10:42:50.133Z,14.28
2018-03-07T10:43:50.709Z,14.26
2018-03-07T10:44:51.287Z,14.29
2018-03-07T10:45:51.866Z,14.32
2018-03-07T10:46:52.440Z,14.29
2018-03-07T10:47:53.016Z,14.36
2018-03-07T10:48:53.595Z,14.32
2018-03-07T10:49:54.180Z,14.41
2018-03-07T10:50:54.748Z,14.33
2018-03-07T10:51:55.326Z,14.37
2018-03-07T10:52:55.950Z,14.43
2018-03-07T10:53:56.527Z,14.41
2018-03-07T10:54:57.102Z,14.44
2018-03-07T10:55:57.680Z,14.43
2018-03-07T10:56:58.406Z,14.40
2018-03-07T10:57:58.981Z,14.36
2018-03-07T10:58:59.606Z,14.36
2018-03-07T11:00:00.184Z,14.47
2018-03-07T11:01:00.759Z,14.50
2018-03-07T11:02:01.335Z,14.36
2018-03-07T11:03:01.918Z,14.43
2018-03-07T11:04:02.486Z,14.45
2018-03-07T11:05:03.060Z,14.47
2018-03-07T11:06:03.639Z,14.50
2018-03-07T11:07:04.216Z,14.48
2018-03-07T11:08:04.942Z,14.48
2018-03-07T11:09:05.518Z,14.43
2018-03-07T11:10:06.094Z,14.41
2018-03-07T11:11:06.670Z,14.54
2018-03-07T11:12:07.255Z,14.51
2018-03-07T11:13:07.824Z,14.53
2018-03-07T11:14:08.402Z,14.48
2018-03-07T11:15:09.030Z,14.51
2018-03-07T11:16:09.657Z,14.58
2018-03-07T11:17:10.235Z,14.55
2018-03-07T11:18:10.814Z,14.58
2018-03-07T11:19:11.391Z,14.60
2018-03-07T11:20:11.967Z,14.55
2018-03-07T11:21:12.544Z,14.55
2018-03-07T11:22:13.128Z,14.58
2018-03-07T11:23:13.704Z,14.65
2018-03-07T11:24:14.274Z,14.63
2018-03-07T11:25:14.855Z,14.68
2018-03-07T11:26:15.426Z,14.69
2018-03-07T11:27:16.052Z,14.66
2018-03-07T11:28:16.629Z,14.65
2018-03-07T11:29:17.205Z,14.69
2018-03-07T11:30:17.787Z,14.69
2018-03-07T11:31:18.412Z,14.66
2018-03-07T11:32:18.989Z,14.69
2018-03-07T11:33:19.566Z,14.72
2018-03-07T11:34:20.152Z,14.72
2018-03-07T11:35:20.719Z,14.65
2018-03-07T11:36:21.301Z,14.70
2018-03-07T11:37:21.879Z,14.70
2018-03-07T11:38:22.507Z,14.73
2018-03-07T11:39:23.083Z,14.70
2018-03-07T11:40:23.660Z,14.70
2018-03-07T11:41:24.240Z,14.70
2018-03-07T11:42:24.816Z,14.69
2018-03-07T11:43:25.441Z,14.66
2018-03-07T11:44:26.020Z,14.77
2018-03-07T11:45:26.645Z,14.73
2018-03-07T11:46:27.222Z,14.72
2018-03-07T11:47:27.798Z,14.73
2018-03-07T11:48:28.528Z,14.69
2018-03-07T11:49:29.100Z,14.66
2018-03-07T11:50:29.681Z,14.79
2018-03-07T11:51:30.257Z,14.69
2018-03-07T11:52:30.834Z,14.72
2018-03-07T11:53:31.408Z,14.82
2018-03-07T11:54:31.985Z,14.86
2018-03-07T11:55:32.563Z,14.89
2018-03-07T11:56:33.140Z,14.84
2018-03-07T11:57:33.719Z,14.86
2018-03-07T11:58:34.346Z,14.85
2018-03-07T11:59:34.922Z,14.82
2018-03-07T12:00:35.506Z,14.86
2018-03-07T12:01:36.075Z,14.86
2018-03-07T12:02:36.654Z,14.82
2018-03-07T12:03:37.280Z,14.84
2018-03-07T12:04:37.907Z,14.86
2018-03-07T12:05:38.486Z,14.92
2018-03-07T12:06:39.063Z,14.84
2018-03-07T12:07:39.642Z,14.88
2018-03-07T12:08:40.261Z,14.86
2018-03-07T12:09:40.841Z,14.86
2018-03-07T12:10:41.417Z,14.91
2018-03-07T12:11:41.993Z,14.91
2018-03-07T12:12:42.570Z,14.94
2018-03-07T12:13:43.147Z,14.92
2018-03-07T12:14:43.726Z,14.99
2018-03-07T12:15:44.352Z,15.00
2018-03-07T12:16:44.929Z,14.99
2018-03-07T12:17:45.508Z,14.99
2018-03-07T12:18:46.086Z,15.06
2018-03-07T12:19:46.662Z,15.00
2018-03-07T12:20:47.242Z,15.02
2018-03-07T12:21:47.870Z,14.94
2018-03-07T12:22:48.496Z,15.02
2018-03-07T12:23:49.071Z,15.03
2018-03-07T12:24:49.648Z,14.92
2018-03-07T12:25:50.224Z,14.99
2018-03-07T12:26:50.800Z,15.00
2018-03-07T12:27:51.380Z,14.99
2018-03-07T12:28:51.953Z,15.03
2018-03-07T12:29:52.530Z,15.04
2018-03-07T12:30:53.160Z,15.02
2018-03-07T12:31:53.738Z,14.89
2018-03-07T12:32:54.398Z,14.89
2018-03-07T12:33:54.942Z,14.94
2018-03-07T12:34:55.518Z,14.94
2018-03-07T12:35:56.097Z,15.03
2018-03-07T12:36:56.675Z,14.91
2018-03-07T12:37:57.251Z,14.96
2018-03-07T12:38:57.829Z,14.91
2018-03-07T12:39:58.449Z,14.94
2018-03-07T12:40:59.024Z,14.96
2018-03-07T12:41:59.651Z,14.91
2018-03-07T12:43:00.228Z,14.92
2018-03-07T12:44:00.806Z,14.89
2018-03-07T12:45:01.385Z,14.94
2018-03-07T12:46:01.962Z,14.92
2018-03-07T12:47:02.536Z,14.96
2018-03-07T12:48:03.113Z,14.96
2018-03-07T12:49:03.694Z,14.86
2018-03-07T12:50:04.270Z,14.94
2018-03-07T12:51:04.910Z,14.99
2018-03-07T12:52:05.521Z,14.94
2018-03-07T12:53:06.151Z,14.94
2018-03-07T12:54:06.770Z,14.91
2018-03-07T12:55:07.348Z,14.99
2018-03-07T12:56:07.926Z,14.88
2018-03-07T12:57:08.508Z,14.89
2018-03-07T12:58:09.083Z,14.99
2018-03-07T12:59:09.660Z,14.97
2018-03-07T13:00:10.238Z,14.91